createdAt,value
2018-12-20T00:00:31.283Z,97.57
2018-12-20T00:01:31.264Z,97.36
2018-12-20T00:02:31.302Z,96.95
2018-12-20T00:03:31.249Z,97.36
2018-12-20T00:04:31.222Z,97.57
2018-12-20T00:05:31.325Z,97.36
2018-12-20T00:06:31.211Z,97.57
2018-12-20T00:07:31.186Z,97.47
2018-12-20T00:08:31.201Z,97.36
2018-12-20T00:09:31.206Z,97.78
2018-12-20T00:10:31.168Z,97.99
2018-12-20T00:11:31.140Z,97.99
2018-12-20T00:12:31.138Z,97.99
2018-12-20T00:13:31.229Z,97.83
2018-12-20T00:14:31.140Z,97.99
2018-12-20T00:15:31.116Z,97.67
2018-12-20T00:16:31.085Z,97.72
2018-12-20T00:17:31.094Z,97.72
2018-12-20T00:18:31.287Z,97.67
2018-12-20T00:19:31.047Z,97.67
2018-12-20T00:20:31.098Z,97.72
2018-12-20T00:21:31.152Z,97.88
2018-12-20T00:22:31.143Z,97.93
2018-12-20T00:23:31.058Z,97.93
2018-12-20T00:24:31.024Z,97.88
2018-12-20T00:25:31.007Z,98.13
2018-12-20T00:26:31.089Z,97.93
2018-12-20T00:27:31.089Z,98.19
2018-12-20T00:28:31.071Z,97.93
2018-12-20T00:29:30.961Z,97.93
2018-12-20T00:30:31.119Z,97.93
2018-12-20T00:31:30.943Z,97.83
2018-12-20T00:32:30.933Z,98.13
2018-12-20T00:33:30.922Z,98.03
2018-12-20T00:34:31.114Z,98.03
2018-12-20T00:35:30.964Z,98.03
2018-12-20T00:36:30.943Z,97.87
2018-12-20T00:37:30.906Z,98.03
2018-12-20T00:38:30.994Z,98.24
2018-12-20T00:39:30.915Z,98.13
2018-12-20T00:40:30.911Z,98.49
2018-12-20T00:41:30.894Z,98.24
2018-12-20T00:42:30.802Z,98.03
2018-12-20T00:43:30.800Z,98.86
2018-12-20T00:44:37.272Z,98.96
2018-12-20T00:45:31.846Z,98.75
2018-12-20T00:46:30.833Z,98.65
2018-12-20T00:47:30.786Z,98.86
2018-12-20T00:48:30.731Z,98.86
2018-12-20T00:49:30.752Z,99.17
2018-12-20T00:50:30.890Z,98.65
2018-12-20T00:51:30.911Z,98.86
2018-12-20T00:52:30.786Z,98.49
2018-12-20T00:53:30.716Z,98.60
2018-12-20T00:54:30.669Z,98.49
2018-12-20T00:55:30.775Z,98.39
2018-12-20T00:56:30.797Z,99.01
2018-12-20T00:57:30.689Z,98.91
2018-12-20T00:58:30.622Z,98.91
2018-12-20T00:59:30.701Z,98.80
2018-12-20T01:00:30.600Z,98.91
2018-12-20T01:01:30.677Z,99.22
2018-12-20T01:02:30.673Z,99.48
2018-12-20T01:03:30.568Z,99.48
2018-12-20T01:04:30.563Z,99.58
2018-12-20T01:05:30.664Z,99.27
2018-12-20T01:06:30.594Z,99.27
2018-12-20T01:07:30.536Z,98.96
2018-12-20T01:08:30.540Z,98.96
2018-12-20T01:09:30.507Z,99.17
2018-12-20T01:10:30.485Z,98.96
2018-12-20T01:11:30.703Z,99.38
2018-12-20T01:12:30.499Z,99.32
2018-12-20T01:13:30.494Z,99.69
2018-12-20T01:14:30.587Z,99.58
2018-12-20T01:15:30.588Z,99.27
2018-12-20T01:16:30.482Z,99.48
2018-12-20T01:17:30.405Z,99.17
2018-12-20T01:18:30.496Z,98.86
2018-12-20T01:19:30.540Z,99.17
2018-12-20T01:20:30.411Z,98.65
2018-12-20T01:21:30.411Z,98.96
2018-12-20T01:22:30.354Z,98.86
2018-12-20T01:23:30.338Z,98.34
2018-12-20T01:24:30.343Z,98.96
2018-12-20T01:25:30.444Z,98.65
2018-12-20T01:26:30.334Z,98.96
2018-12-20T01:27:30.299Z,98.55
2018-12-20T01:28:30.294Z,98.65
2018-12-20T01:29:30.343Z,98.44
2018-12-20T01:30:30.267Z,98.65
2018-12-20T01:31:30.279Z,98.86
2018-12-20T01:32:30.265Z,98.55
2018-12-20T01:33:30.324Z,98.75
2018-12-20T01:34:30.346Z,98.65
2018-12-20T01:35:30.268Z,98.75
2018-12-20T01:36:30.213Z,98.75
2018-12-20T01:37:30.191Z,98.96
2018-12-20T01:38:30.257Z,99.07
2018-12-20T01:39:30.169Z,99.07
2018-12-20T01:40:30.215Z,98.96
2018-12-20T01:41:30.290Z,99.17
2018-12-20T01:42:30.183Z,99.01
2018-12-20T01:43:30.230Z,98.96
2018-12-20T01:44:30.271Z,98.96
2018-12-20T01:45:30.201Z,98.55
2018-12-20T01:46:30.277Z,98.75
2018-12-20T01:47:30.279Z,98.55
2018-12-20T01:48:30.124Z,98.75
2018-12-20T01:49:30.229Z,98.86
2018-12-20T01:50:30.084Z,98.44
2018-12-20T01:51:30.032Z,98.34
2018-12-20T01:52:30.038Z,98.44
2018-12-20T01:53:30.148Z,98.65
2018-12-20T01:54:30.013Z,98.44
2018-12-20T01:55:29.996Z,98.55
2018-12-20T01:56:30.004Z,98.86
2018-12-20T01:57:30.201Z,98.75
2018-12-20T01:58:29.949Z,98.44
2018-12-20T01:59:30.093Z,98.86
2018-12-20T02:00:29.942Z,99.07
2018-12-20T02:01:29.982Z,99.17
2018-12-20T02:02:29.991Z,99.17
2018-12-20T02:03:29.973Z,99.17
2018-12-20T02:04:29.906Z,98.92
2018-12-20T02:05:29.880Z,98.82
2018-12-20T02:06:29.863Z,98.92
2018-12-20T02:07:29.880Z,98.25
2018-12-20T02:08:29.886Z,98.15
2018-12-20T02:09:29.983Z,98.00
2018-12-20T02:10:29.914Z,97.49
2018-12-20T02:11:29.975Z,97.54
2018-12-20T02:12:29.805Z,96.92
2018-12-20T02:13:29.786Z,96.20
2018-12-20T02:14:29.822Z,95.74
2018-12-20T02:15:29.921Z,94.81
2018-12-20T02:16:29.789Z,94.92
2018-12-20T02:17:29.769Z,94.60
2018-12-20T02:18:29.896Z,94.04
2018-12-20T02:19:29.967Z,93.63
2018-12-20T02:20:29.731Z,93.43
2018-12-20T02:21:29.784Z,93.73
2018-12-20T02:22:29.804Z,92.97
2018-12-20T02:23:29.686Z,92.76
2018-12-20T02:24:29.747Z,92.55
2018-12-20T02:25:29.693Z,92.35
2018-12-20T02:26:29.717Z,92.04
2018-12-20T02:27:29.695Z,92.00
2018-12-20T02:28:29.636Z,91.94
2018-12-20T02:29:29.690Z,91.89
2018-12-20T02:30:29.634Z,91.69
2018-12-20T02:31:29.587Z,91.83
2018-12-20T02:32:29.603Z,92.31
2018-12-20T02:33:29.565Z,92.04
2018-12-20T02:34:29.798Z,92.21
2018-12-20T02:35:29.775Z,92.04
2018-12-20T02:36:29.697Z,92.14
2018-12-20T02:37:29.658Z,92.00
2018-12-20T02:38:29.646Z,92.14
2018-12-20T02:39:29.575Z,91.83
2018-12-20T02:40:29.638Z,92.10
2018-12-20T02:41:29.489Z,92.00
2018-12-20T02:42:29.469Z,91.52
2018-12-20T02:43:29.454Z,91.01
2018-12-20T02:44:29.480Z,91.07
2018-12-20T02:45:29.429Z,91.22
2018-12-20T02:46:29.633Z,91.07
2018-12-20T02:47:29.661Z,91.48
2018-12-20T02:48:29.390Z,91.38
2018-12-20T02:49:29.388Z,91.28
2018-12-20T02:50:29.513Z,91.32
2018-12-20T02:51:29.565Z,90.91
2018-12-20T02:52:29.365Z,91.22
2018-12-20T02:53:29.359Z,91.32
2018-12-20T02:54:29.465Z,91.42
2018-12-20T02:55:29.317Z,91.42
2018-12-20T02:56:29.477Z,91.52
2018-12-20T02:57:29.516Z,91.52
2018-12-20T02:58:29.291Z,91.52
2018-12-20T02:59:29.507Z,91.73
2018-12-20T03:00:29.464Z,91.94
2018-12-20T03:01:29.251Z,91.88
2018-12-20T03:02:29.367Z,91.94
2018-12-20T03:03:29.442Z,92.40
2018-12-20T03:04:29.406Z,92.35
2018-12-20T03:05:29.411Z,91.88
2018-12-20T03:06:29.200Z,92.19
2018-12-20T03:07:29.231Z,92.19
2018-12-20T03:08:29.520Z,92.29
2018-12-20T03:09:29.170Z,92.70
2018-12-20T03:10:29.312Z,92.70
2018-12-20T03:11:29.161Z,92.70
2018-12-20T03:12:29.246Z,92.60
2018-12-20T03:13:29.752Z,92.08
2018-12-20T03:14:29.368Z,92.29
2018-12-20T03:15:29.143Z,92.25
2018-12-20T03:16:29.100Z,92.29
2018-12-20T03:17:29.072Z,92.14
2018-12-20T03:18:29.137Z,92.14
2018-12-20T03:19:29.116Z,92.14
2018-12-20T03:20:29.318Z,92.04
2018-12-20T03:21:29.097Z,92.29
2018-12-20T03:22:29.100Z,92.29
2018-12-20T03:23:29.210Z,92.35
2018-12-20T03:24:29.136Z,92.66
2018-12-20T03:25:29.342Z,92.50
2018-12-20T03:26:29.150Z,92.08
2018-12-20T03:27:29.115Z,92.70
2018-12-20T03:28:29.213Z,92.35
2018-12-20T03:29:29.040Z,92.14
2018-12-20T03:30:28.936Z,92.25
2018-12-20T03:31:29.080Z,92.66
2018-12-20T03:32:28.987Z,91.94
2018-12-20T03:33:29.050Z,92.35
2018-12-20T03:34:28.887Z,92.55
2018-12-20T03:35:29.064Z,92.46
2018-12-20T03:36:28.860Z,92.14
2018-12-20T03:37:28.882Z,92.55
2018-12-20T03:38:28.884Z,92.25
2018-12-20T03:39:28.837Z,92.66
2018-12-20T03:40:28.812Z,92.25
2018-12-20T03:41:28.797Z,92.04
2018-12-20T03:42:28.816Z,92.04
2018-12-20T03:43:28.999Z,92.31
2018-12-20T03:44:29.051Z,92.21
2018-12-20T03:45:29.365Z,92.31
2018-12-20T03:46:28.799Z,91.89
2018-12-20T03:47:28.791Z,91.89
2018-12-20T03:48:28.736Z,92.00
2018-12-20T03:49:28.771Z,91.79
2018-12-20T03:50:29.018Z,92.00
2018-12-20T03:51:29.812Z,92.10
2018-12-20T03:52:28.877Z,92.00
2018-12-20T03:53:28.758Z,91.79
2018-12-20T03:54:28.693Z,92.21
2018-12-20T03:55:28.658Z,91.79
2018-12-20T03:56:28.670Z,91.13
2018-12-20T03:57:28.622Z,91.24
2018-12-20T03:58:28.725Z,90.72
2018-12-20T03:59:28.623Z,90.72
2018-12-20T04:00:28.743Z,90.51
2018-12-20T04:01:28.584Z,90.61
2018-12-20T04:02:28.803Z,90.51
2018-12-20T04:03:28.774Z,90.51
2018-12-20T04:04:28.560Z,90.61
2018-12-20T04:05:28.675Z,90.51
2018-12-20T04:06:28.548Z,90.72
2018-12-20T04:07:28.739Z,90.41
2018-12-20T04:08:28.684Z,90.61
2018-12-20T04:09:28.503Z,90.51
2018-12-20T04:10:28.548Z,90.51
2018-12-20T04:11:28.476Z,90.10
2018-12-20T04:12:28.503Z,90.41
2018-12-20T04:13:28.511Z,90.41
2018-12-20T04:14:28.555Z,90.51
2018-12-20T04:15:30.107Z,90.51
2018-12-20T04:16:29.446Z,90.51
2018-12-20T04:17:28.398Z,90.72
2018-12-20T04:18:28.550Z,90.72
2018-12-20T04:19:28.579Z,90.72
2018-12-20T04:20:28.478Z,90.61
2018-12-20T04:21:28.463Z,90.51
2018-12-20T04:22:28.365Z,90.41
2018-12-20T04:23:28.338Z,90.82
2018-12-20T04:24:28.471Z,90.10
2018-12-20T04:25:28.320Z,90.31
2018-12-20T04:26:28.437Z,90.31
2018-12-20T04:27:28.319Z,89.79
2018-12-20T04:28:28.288Z,90.20
2018-12-20T04:29:28.343Z,89.89
2018-12-20T04:30:28.459Z,90.31
2018-12-20T04:31:28.264Z,90.00
2018-12-20T04:32:28.333Z,90.20
2018-12-20T04:33:28.469Z,90.31
2018-12-20T04:34:28.621Z,90.41
2018-12-20T04:35:28.450Z,90.31
2018-12-20T04:36:28.295Z,90.31
2018-12-20T04:37:28.217Z,90.20
2018-12-20T04:38:28.269Z,90.61
2018-12-20T04:39:28.218Z,90.72
2018-12-20T04:40:28.163Z,90.61
2018-12-20T04:41:28.454Z,90.72
2018-12-20T04:42:28.385Z,90.61
2018-12-20T04:43:28.124Z,90.61
2018-12-20T04:44:28.403Z,90.92
2018-12-20T04:45:28.146Z,91.34
2018-12-20T04:46:28.086Z,90.82
2018-12-20T04:47:28.114Z,90.82
2018-12-20T04:48:28.173Z,91.13
2018-12-20T04:49:28.051Z,91.13
2018-12-20T04:50:28.350Z,91.85
2018-12-20T04:51:28.273Z,91.64
2018-12-20T04:52:28.017Z,91.69
2018-12-20T04:53:28.005Z,91.54
2018-12-20T04:54:28.041Z,91.64
2018-12-20T04:55:28.160Z,91.13
2018-12-20T04:56:28.511Z,91.03
2018-12-20T04:57:28.113Z,91.34
2018-12-20T04:58:27.999Z,91.03
2018-12-20T04:59:27.989Z,91.13
2018-12-20T05:00:27.921Z,90.92
2018-12-20T05:01:27.911Z,90.72
2018-12-20T05:02:27.994Z,90.61
2018-12-20T05:03:28.359Z,90.72
2018-12-20T05:04:27.873Z,90.20
2018-12-20T05:05:27.895Z,90.51
2018-12-20T05:06:27.938Z,90.61
2018-12-20T05:07:27.924Z,90.51
2018-12-20T05:08:27.913Z,90.51
2018-12-20T05:09:27.822Z,90.51
2018-12-20T05:10:28.059Z,90.76
2018-12-20T05:11:27.983Z,90.31
2018-12-20T05:12:27.875Z,90.10
2018-12-20T05:13:28.111Z,90.20
2018-12-20T05:14:27.836Z,89.89
2018-12-20T05:15:27.764Z,90.20
2018-12-20T05:16:27.775Z,90.45
2018-12-20T05:17:27.751Z,90.14
2018-12-20T05:18:27.725Z,90.25
2018-12-20T05:19:27.714Z,89.94
2018-12-20T05:20:27.931Z,89.94
2018-12-20T05:21:27.708Z,90.14
2018-12-20T05:22:27.720Z,89.98
2018-12-20T05:23:27.699Z,90.14
2018-12-20T05:24:27.662Z,89.94
2018-12-20T05:25:27.685Z,90.19
2018-12-20T05:26:27.675Z,90.04
2018-12-20T05:27:27.688Z,90.25
2018-12-20T05:28:27.636Z,89.98
2018-12-20T05:29:27.703Z,90.08
2018-12-20T05:30:27.646Z,89.94
2018-12-20T05:31:27.585Z,90.14
2018-12-20T05:32:27.638Z,89.77
2018-12-20T05:33:27.728Z,89.83
2018-12-20T05:34:27.577Z,89.83
2018-12-20T05:35:27.544Z,89.83
2018-12-20T05:36:27.682Z,90.39
2018-12-20T05:37:27.565Z,90.25
2018-12-20T05:38:27.564Z,90.39
2018-12-20T05:39:27.538Z,90.14
2018-12-20T05:40:27.511Z,90.14
2018-12-20T05:41:27.598Z,90.70
2018-12-20T05:42:27.504Z,90.49
2018-12-20T05:43:27.481Z,90.08
2018-12-20T05:44:27.481Z,90.28
2018-12-20T05:45:27.430Z,90.19
2018-12-20T05:46:27.412Z,90.08
2018-12-20T05:47:27.457Z,89.87
2018-12-20T05:48:27.391Z,89.87
2018-12-20T05:49:27.556Z,90.08
2018-12-20T05:50:27.405Z,90.19
2018-12-20T05:51:27.578Z,89.42
2018-12-20T05:52:27.340Z,88.84
2018-12-20T05:53:27.558Z,88.64
2018-12-20T05:54:27.496Z,88.39
2018-12-20T05:55:27.368Z,88.43
2018-12-20T05:56:27.344Z,88.12
2018-12-20T05:57:27.287Z,88.29
2018-12-20T05:58:27.543Z,88.18
2018-12-20T05:59:27.280Z,88.32
2018-12-20T06:00:27.313Z,88.32
2018-12-20T06:01:27.260Z,88.12
2018-12-20T06:02:27.264Z,88.43
2018-12-20T06:03:27.453Z,88.43
2018-12-20T06:04:27.246Z,88.02
2018-12-20T06:05:27.333Z,88.47
2018-12-20T06:06:27.349Z,88.43
2018-12-20T06:07:28.148Z,87.54
2018-12-20T06:08:28.530Z,87.74
2018-12-20T06:09:28.256Z,87.95
2018-12-20T06:10:28.170Z,87.71
2018-12-20T06:11:28.150Z,87.50
2018-12-20T06:12:27.224Z,87.60
2018-12-20T06:13:27.394Z,87.08
2018-12-20T06:14:27.127Z,86.78
2018-12-20T06:15:27.140Z,86.88
2018-12-20T06:16:27.099Z,86.57
2018-12-20T06:17:27.082Z,86.16
2018-12-20T06:18:27.062Z,86.47
2018-12-20T06:19:27.345Z,86.53
2018-12-20T06:20:27.097Z,86.78
2018-12-20T06:21:27.070Z,86.47
2018-12-20T06:22:27.228Z,86.36
2018-12-20T06:23:27.056Z,86.16
2018-12-20T06:24:27.020Z,86.32
2018-12-20T06:25:26.976Z,85.81
2018-12-20T06:26:27.017Z,86.12
2018-12-20T06:27:26.956Z,86.12
2018-12-20T06:28:26.948Z,86.22
2018-12-20T06:29:26.935Z,86.43
2018-12-20T06:30:26.925Z,86.32
2018-12-20T06:31:26.921Z,86.57
2018-12-20T06:32:26.940Z,86.84
2018-12-20T06:33:26.889Z,86.68
2018-12-20T06:34:26.887Z,86.88
2018-12-20T06:35:26.862Z,87.19
2018-12-20T06:36:26.848Z,87.29
2018-12-20T06:37:26.838Z,86.68
2018-12-20T06:38:26.902Z,86.84
2018-12-20T06:39:26.820Z,86.57
2018-12-20T06:40:26.806Z,86.88
2018-12-20T06:41:26.807Z,86.68
2018-12-20T06:42:26.785Z,86.98
2018-12-20T06:43:26.787Z,86.78
2018-12-20T06:44:26.803Z,87.08
2018-12-20T06:45:26.752Z,86.74
2018-12-20T06:46:26.740Z,87.08
2018-12-20T06:47:26.736Z,87.35
2018-12-20T06:48:26.721Z,86.68
2018-12-20T06:49:26.708Z,87.02
2018-12-20T06:50:26.757Z,87.02
2018-12-20T06:51:26.696Z,87.44
2018-12-20T06:52:26.665Z,87.65
2018-12-20T06:53:26.674Z,87.54
2018-12-20T06:54:26.655Z,87.54
2018-12-20T06:55:26.650Z,87.74
2018-12-20T06:56:26.667Z,87.34
2018-12-20T06:57:26.625Z,88.68
2018-12-20T06:58:26.614Z,88.47
2018-12-20T06:59:26.595Z,87.74
2018-12-20T07:00:26.621Z,87.74
2018-12-20T07:01:26.577Z,87.85
2018-12-20T07:02:26.597Z,87.54
2018-12-20T07:03:26.564Z,87.54
2018-12-20T07:04:26.540Z,86.71
2018-12-20T07:05:26.525Z,86.92
2018-12-20T07:06:26.519Z,86.82
2018-12-20T07:07:26.519Z,87.19
2018-12-20T07:08:26.531Z,87.08
2018-12-20T07:09:26.482Z,86.88
2018-12-20T07:10:26.476Z,86.78
2018-12-20T07:11:26.488Z,86.82
2018-12-20T07:12:26.455Z,86.98
2018-12-20T07:13:26.433Z,86.82
2018-12-20T07:14:26.464Z,87.08
2018-12-20T07:15:26.445Z,87.29
2018-12-20T07:16:29.411Z,86.78
2018-12-20T07:17:26.396Z,86.68
2018-12-20T07:18:26.383Z,87.40
2018-12-20T07:19:26.371Z,87.19
2018-12-20T07:20:26.424Z,87.29
2018-12-20T07:21:26.347Z,87.40
2018-12-20T07:22:26.334Z,87.50
2018-12-20T07:23:26.330Z,87.71
2018-12-20T07:24:26.314Z,87.50
2018-12-20T07:25:26.302Z,87.60
2018-12-20T07:26:26.398Z,87.40
2018-12-20T07:27:26.279Z,87.60
2018-12-20T07:28:26.267Z,87.29
2018-12-20T07:29:26.256Z,88.43
2018-12-20T07:30:26.255Z,87.71
2018-12-20T07:31:26.234Z,87.71
2018-12-20T07:32:26.263Z,87.81
2018-12-20T07:33:26.214Z,87.40
2018-12-20T07:34:26.315Z,87.81
2018-12-20T07:35:26.196Z,87.81
2018-12-20T07:36:26.207Z,88.02
2018-12-20T07:37:26.171Z,88.43
2018-12-20T07:38:26.210Z,88.32
2018-12-20T07:39:26.143Z,88.53
2018-12-20T07:40:26.145Z,88.53
2018-12-20T07:41:26.144Z,88.43
2018-12-20T07:42:26.116Z,88.53
2018-12-20T07:43:26.100Z,88.53
2018-12-20T07:44:26.136Z,88.53
2018-12-20T07:45:26.115Z,88.53
2018-12-20T07:46:26.078Z,88.39
2018-12-20T07:47:26.053Z,88.49
2018-12-20T07:48:32.014Z,88.12
2018-12-20T07:49:27.081Z,88.32
2018-12-20T07:50:26.024Z,88.29
2018-12-20T07:51:26.010Z,88.29
2018-12-20T07:52:26.020Z,88.49
2018-12-20T07:53:25.995Z,88.39
2018-12-20T07:54:25.992Z,88.18
2018-12-20T07:55:26.004Z,88.59
2018-12-20T07:56:25.955Z,88.64
2018-12-20T07:57:25.948Z,88.49
2018-12-20T07:58:25.940Z,88.18
2018-12-20T07:59:25.959Z,88.49
2018-12-20T08:00:25.913Z,88.43
2018-12-20T08:01:25.930Z,88.49
2018-12-20T08:02:25.890Z,88.08
2018-12-20T08:03:25.877Z,88.29
2018-12-20T08:04:25.868Z,87.92
2018-12-20T08:05:25.865Z,87.81
2018-12-20T08:06:25.855Z,88.22
2018-12-20T08:07:25.933Z,88.02
2018-12-20T08:08:25.832Z,88.22
2018-12-20T08:09:25.816Z,88.43
2018-12-20T08:10:25.805Z,88.12
2018-12-20T08:11:25.799Z,87.98
2018-12-20T08:12:25.781Z,88.02
2018-12-20T08:13:25.802Z,88.49
2018-12-20T08:14:25.755Z,88.39
2018-12-20T08:15:25.745Z,88.49
2018-12-20T08:16:25.744Z,88.39
2018-12-20T08:17:25.739Z,88.29
2018-12-20T08:18:25.715Z,88.08
2018-12-20T08:19:25.740Z,88.39
2018-12-20T08:20:25.689Z,88.59
2018-12-20T08:21:25.679Z,87.66
2018-12-20T08:22:25.671Z,87.46
2018-12-20T08:23:25.684Z,87.35
2018-12-20T08:24:25.678Z,86.60
2018-12-20T08:25:25.674Z,87.35
2018-12-20T08:26:25.639Z,86.80
2018-12-20T08:27:25.615Z,87.01
2018-12-20T08:28:25.617Z,87.11
2018-12-20T08:29:25.590Z,86.90
2018-12-20T08:30:25.585Z,86.49
2018-12-20T08:31:25.649Z,87.32
2018-12-20T08:32:25.555Z,87.11
2018-12-20T08:33:25.562Z,87.21
2018-12-20T08:34:25.559Z,87.21
2018-12-20T08:35:25.544Z,87.52
2018-12-20T08:36:25.531Z,87.32
2018-12-20T08:37:25.550Z,87.52
2018-12-20T08:38:25.512Z,87.32
2018-12-20T08:39:25.551Z,86.90
2018-12-20T08:40:26.459Z,86.60
2018-12-20T08:41:25.455Z,86.97
2018-12-20T08:42:25.469Z,86.87
2018-12-20T08:43:25.476Z,86.97
2018-12-20T08:44:25.432Z,86.66
2018-12-20T08:45:25.480Z,86.66
2018-12-20T08:46:25.399Z,86.70
2018-12-20T08:47:25.496Z,86.66
2018-12-20T08:48:25.379Z,86.76
2018-12-20T08:49:25.404Z,86.55
2018-12-20T08:50:25.383Z,86.55
2018-12-20T08:51:25.382Z,86.55
2018-12-20T08:52:25.345Z,86.66
2018-12-20T08:53:25.331Z,87.27
2018-12-20T08:54:25.361Z,86.97
2018-12-20T08:55:25.393Z,87.07
2018-12-20T08:56:25.350Z,86.55
2018-12-20T08:57:25.335Z,86.55
2018-12-20T08:58:25.296Z,86.97
2018-12-20T08:59:25.292Z,87.38
2018-12-20T09:00:25.278Z,86.87
2018-12-20T09:01:25.262Z,87.07
2018-12-20T09:02:25.231Z,86.97
2018-12-20T09:03:25.244Z,86.97
2018-12-20T09:04:25.266Z,86.87
2018-12-20T09:05:25.225Z,87.07
2018-12-20T09:06:25.213Z,86.66
2018-12-20T09:07:25.276Z,86.55
2018-12-20T09:08:25.465Z,86.87
2018-12-20T09:09:25.211Z,87.48
2018-12-20T09:10:25.148Z,86.87
2018-12-20T09:11:25.161Z,87.69
2018-12-20T09:12:25.146Z,87.38
2018-12-20T09:13:25.233Z,87.24
2018-12-20T09:14:25.193Z,87.59
2018-12-20T09:15:25.286Z,86.82
2018-12-20T09:16:25.125Z,86.82
2018-12-20T09:17:25.115Z,86.61
2018-12-20T09:18:25.070Z,86.61
2018-12-20T09:19:25.110Z,87.40
2018-12-20T09:20:32.557Z,86.93
2018-12-20T09:21:26.108Z,86.41
2018-12-20T09:22:25.018Z,86.82
2018-12-20T09:23:25.045Z,86.72
2018-12-20T09:24:25.094Z,86.68
2018-12-20T09:25:25.055Z,86.68
2018-12-20T09:26:24.990Z,86.58
2018-12-20T09:27:24.975Z,86.68
2018-12-20T09:28:25.035Z,86.68
2018-12-20T09:29:25.928Z,86.88
2018-12-20T09:30:30.499Z,86.54
2018-12-20T09:31:26.134Z,86.33
2018-12-20T09:32:24.922Z,86.33
2018-12-20T09:33:24.904Z,86.33
2018-12-20T09:34:24.891Z,86.54
2018-12-20T09:35:24.980Z,86.02
2018-12-20T09:36:24.877Z,86.23
2018-12-20T09:37:24.876Z,85.88
2018-12-20T09:38:24.881Z,85.68
2018-12-20T09:39:24.853Z,85.88
2018-12-20T09:40:24.819Z,85.98
2018-12-20T09:41:24.826Z,85.78
2018-12-20T09:42:24.856Z,85.74
2018-12-20T09:43:25.107Z,85.26
2018-12-20T09:44:24.790Z,84.75
2018-12-20T09:45:24.753Z,85.26
2018-12-20T09:46:24.771Z,85.06
2018-12-20T09:47:24.810Z,85.16
2018-12-20T09:48:24.771Z,84.64
2018-12-20T09:49:24.742Z,83.92
2018-12-20T09:50:24.745Z,83.68
2018-12-20T09:51:24.698Z,82.55
2018-12-20T09:52:24.711Z,83.13
2018-12-20T09:53:24.701Z,82.41
2018-12-20T09:54:24.683Z,83.03
2018-12-20T09:55:24.777Z,83.23
2018-12-20T09:56:25.575Z,82.57
2018-12-20T09:57:24.644Z,80.52
2018-12-20T09:58:24.638Z,80.52
2018-12-20T09:59:24.679Z,80.69
2018-12-20T10:00:24.648Z,80.58
2018-12-20T10:01:24.633Z,80.69
2018-12-20T10:02:24.558Z,79.66
2018-12-20T10:03:25.184Z,79.46
2018-12-20T10:04:24.646Z,78.12
2018-12-20T10:05:24.693Z,78.94
2018-12-20T10:06:24.611Z,79.36
2018-12-20T10:07:24.617Z,79.25
2018-12-20T10:08:24.666Z,79.77
2018-12-20T10:09:24.628Z,78.74
2018-12-20T10:10:24.510Z,79.52
2018-12-20T10:11:24.494Z,79.52
2018-12-20T10:12:24.486Z,78.09
2018-12-20T10:13:24.471Z,78.91
2018-12-20T10:14:24.435Z,78.29
2018-12-20T10:15:24.519Z,78.81
2018-12-20T10:16:24.420Z,78.29
2018-12-20T10:17:24.416Z,78.60
2018-12-20T10:18:24.419Z,78.77
2018-12-20T10:19:24.421Z,77.64
2018-12-20T10:20:24.408Z,77.64
2018-12-20T10:21:24.447Z,77.88
2018-12-20T10:22:24.372Z,77.84
2018-12-20T10:23:24.368Z,77.17
2018-12-20T10:24:24.325Z,77.68
2018-12-20T10:25:24.423Z,77.37
2018-12-20T10:26:24.334Z,77.33
2018-12-20T10:27:31.417Z,78.36
2018-12-20T10:28:25.433Z,78.67
2018-12-20T10:29:24.290Z,77.95
2018-12-20T10:30:24.280Z,76.96
2018-12-20T10:31:24.296Z,76.75
2018-12-20T10:32:24.249Z,77.64
2018-12-20T10:33:25.023Z,77.13
2018-12-20T10:34:24.224Z,77.54
2018-12-20T10:35:24.227Z,77.03
2018-12-20T10:36:24.297Z,77.64
2018-12-20T10:37:24.196Z,78.56
2018-12-20T10:38:24.157Z,77.23
2018-12-20T10:39:24.175Z,77.13
2018-12-20T10:40:24.142Z,76.34
2018-12-20T10:41:24.181Z,76.04
2018-12-20T10:42:24.112Z,76.55
2018-12-20T10:43:24.490Z,76.82
2018-12-20T10:44:24.092Z,77.17
2018-12-20T10:45:24.085Z,77.17
2018-12-20T10:46:24.088Z,78.16
2018-12-20T10:47:28.768Z,77.54
2018-12-20T10:48:25.092Z,76.00
2018-12-20T10:49:24.038Z,76.62
2018-12-20T10:50:24.023Z,76.82
2018-12-20T10:51:24.012Z,77.23
2018-12-20T10:52:24.147Z,76.75
2018-12-20T10:53:23.992Z,77.13
2018-12-20T10:54:24.013Z,76.96
2018-12-20T10:55:24.019Z,77.26
2018-12-20T10:56:23.998Z,77.37
2018-12-20T10:57:23.973Z,77.68
2018-12-20T10:58:23.943Z,77.88
2018-12-20T10:59:23.919Z,76.86
2018-12-20T11:00:24.054Z,75.93
2018-12-20T11:01:23.904Z,75.93
2018-12-20T11:02:24.005Z,76.79
2018-12-20T11:03:23.880Z,76.75
2018-12-20T11:04:23.870Z,77.37
2018-12-20T11:05:23.922Z,77.03
2018-12-20T11:06:23.875Z,77.03
2018-12-20T11:07:23.848Z,76.82
2018-12-20T11:08:23.821Z,76.31
2018-12-20T11:09:23.813Z,76.41
2018-12-20T11:10:23.807Z,76.31
2018-12-20T11:11:23.790Z,76.51
2018-12-20T11:12:23.804Z,76.72
2018-12-20T11:13:23.789Z,77.03
2018-12-20T11:14:23.757Z,77.23
2018-12-20T11:15:23.753Z,77.74
2018-12-20T11:16:23.730Z,77.74
2018-12-20T11:17:23.724Z,77.74
2018-12-20T11:18:23.742Z,76.92
2018-12-20T11:19:23.717Z,77.74
2018-12-20T11:20:23.692Z,77.74
2018-12-20T11:21:23.673Z,77.54
2018-12-20T11:22:23.666Z,77.44
2018-12-20T11:23:23.672Z,78.25
2018-12-20T11:24:23.732Z,77.78
2018-12-20T11:25:23.635Z,76.86
2018-12-20T11:26:23.632Z,76.96
2018-12-20T11:27:23.615Z,77.78
2018-12-20T11:28:23.599Z,78.60
2018-12-20T11:29:23.615Z,77.78
2018-12-20T11:30:23.605Z,78.12
2018-12-20T11:31:23.582Z,78.81
2018-12-20T11:32:23.566Z,78.81
2018-12-20T11:33:23.541Z,77.58
2018-12-20T11:34:23.537Z,77.26
2018-12-20T11:35:23.549Z,77.26
2018-12-20T11:36:23.568Z,77.37
2018-12-20T11:37:23.502Z,77.37
2018-12-20T11:38:23.495Z,77.06
2018-12-20T11:39:23.494Z,77.23
2018-12-20T11:40:23.470Z,76.51
2018-12-20T11:41:23.454Z,76.31
2018-12-20T11:42:23.482Z,77.23
2018-12-20T11:43:23.457Z,76.51
2018-12-20T11:44:23.430Z,76.20
2018-12-20T11:45:23.431Z,76.10
2018-12-20T11:46:23.404Z,76.20
2018-12-20T11:47:23.400Z,76.20
2018-12-20T11:48:23.428Z,76.41
2018-12-20T11:49:23.366Z,76.72
2018-12-20T11:50:23.362Z,76.82
2018-12-20T11:51:23.345Z,76.31
2018-12-20T11:52:23.330Z,76.62
2018-12-20T11:53:23.343Z,76.62
2018-12-20T11:54:23.342Z,76.62
2018-12-20T11:55:23.304Z,77.23
2018-12-20T11:56:23.286Z,76.82
2018-12-20T11:57:23.285Z,76.92
2018-12-20T11:58:23.276Z,76.62
2018-12-20T11:59:23.264Z,76.82
2018-12-20T12:00:23.284Z,76.92
2018-12-20T12:01:23.234Z,76.62
2018-12-20T12:02:24.587Z,76.62
2018-12-20T12:03:23.207Z,76.82
2018-12-20T12:04:23.212Z,77.06
2018-12-20T12:05:23.233Z,76.20
2018-12-20T12:06:23.222Z,76.31
2018-12-20T12:07:23.168Z,76.51
2018-12-20T12:08:23.170Z,76.07
2018-12-20T12:09:23.141Z,76.17
2018-12-20T12:10:23.183Z,76.78
2018-12-20T12:11:23.151Z,76.78
2018-12-20T12:12:23.149Z,76.17
2018-12-20T12:13:23.103Z,75.76
2018-12-20T12:14:23.111Z,75.56
2018-12-20T12:15:23.081Z,74.53
2018-12-20T12:16:23.071Z,75.15
2018-12-20T12:17:23.054Z,75.11
2018-12-20T12:18:23.093Z,75.62
2018-12-20T12:19:23.030Z,75.28
2018-12-20T12:20:23.020Z,74.46
2018-12-20T12:21:23.035Z,73.50
2018-12-20T12:22:23.006Z,74.43
2018-12-20T12:23:22.989Z,73.91
2018-12-20T12:24:23.012Z,73.20
2018-12-20T12:25:22.972Z,72.72
2018-12-20T12:26:22.956Z,73.74
2018-12-20T12:27:22.938Z,73.30
2018-12-20T12:28:22.952Z,73.54
2018-12-20T12:29:22.918Z,74.05
2018-12-20T12:30:22.937Z,74.15
2018-12-20T12:31:22.921Z,74.26
2018-12-20T12:32:22.884Z,74.29
2018-12-20T12:33:22.878Z,74.70
2018-12-20T12:34:22.869Z,75.31
2018-12-20T12:35:22.873Z,75.42
2018-12-20T12:36:22.896Z,74.90
2018-12-20T12:37:22.828Z,74.56
2018-12-20T12:38:22.825Z,74.29
2018-12-20T12:39:22.806Z,74.26
2018-12-20T12:40:22.795Z,73.78
2018-12-20T12:41:22.791Z,73.68
2018-12-20T12:42:22.815Z,73.78
2018-12-20T12:43:22.779Z,73.81
2018-12-20T12:44:22.748Z,74.02
2018-12-20T12:45:22.747Z,75.45
2018-12-20T12:46:22.745Z,74.84
2018-12-20T12:47:22.713Z,74.32
2018-12-20T12:48:22.740Z,74.57
2018-12-20T12:49:24.101Z,74.12
2018-12-20T12:50:22.685Z,74.26
2018-12-20T12:51:22.767Z,74.63
2018-12-20T12:52:22.670Z,74.87